createdAt,value
2022-07-26T00:02:26.283Z,23.59
2022-07-26T00:04:53.041Z,23.18
2022-07-26T00:07:19.610Z,22.95
2022-07-26T00:09:48.405Z,23.17
2022-07-26T00:12:15.559Z,23.59
2022-07-26T00:14:43.501Z,23.56
2022-07-26T00:17:10.499Z,23.11
2022-07-26T00:19:37.032Z,23.31
2022-07-26T00:22:22.385Z,22.74
2022-07-26T00:24:48.808Z,23.08
2022-07-26T00:27:15.277Z,23.18
2022-07-26T00:29:41.741Z,22.93
2022-07-26T00:32:08.147Z,23.43
2022-07-26T00:34:34.698Z,22.86
2022-07-26T00:37:01.229Z,22.74
2022-07-26T00:39:28.822Z,22.73
2022-07-26T00:41:55.454Z,22.95
2022-07-26T00:44:21.941Z,22.58
2022-07-26T00:46:48.357Z,22.76
2022-07-26T00:49:14.974Z,22.60
2022-07-26T00:51:42.205Z,22.74
2022-07-26T00:54:13.246Z,22.76
2022-07-26T00:56:40.007Z,23.12
2022-07-26T00:59:06.733Z,22.88
2022-07-26T01:01:33.518Z,22.52
2022-07-26T01:04:00.059Z,23.21
2022-07-26T01:06:27.517Z,22.72
2022-07-26T01:08:54.455Z,22.46
2022-07-26T01:11:20.981Z,22.44
2022-07-26T01:13:49.306Z,22.61
2022-07-26T01:16:16.246Z,22.42
2022-07-26T01:18:43.322Z,22.42
2022-07-26T01:21:13.908Z,22.33
2022-07-26T01:23:41.412Z,22.58
2022-07-26T01:26:08.227Z,22.90
2022-07-26T01:28:37.727Z,22.40
2022-07-26T01:31:06.157Z,22.37
2022-07-26T01:33:34.773Z,22.72
2022-07-26T01:36:01.651Z,22.53
2022-07-26T01:38:28.300Z,22.46
2022-07-26T01:40:54.773Z,23.07
2022-07-26T01:43:21.202Z,22.39
2022-07-26T01:45:47.769Z,22.40
2022-07-26T01:48:14.597Z,22.30
2022-07-26T01:50:41.151Z,22.05
2022-07-26T01:53:07.607Z,22.45
2022-07-26T01:55:34.551Z,23.02
2022-07-26T01:58:01.124Z,22.35
2022-07-26T02:00:27.531Z,22.48
2022-07-26T02:02:54.044Z,22.75
2022-07-26T02:05:20.655Z,22.36
2022-07-26T02:07:47.124Z,22.49
2022-07-26T02:10:14.544Z,23.17
2022-07-26T02:12:41.505Z,22.80
2022-07-26T02:15:09.330Z,22.45
2022-07-26T02:17:35.763Z,22.57
2022-07-26T02:20:02.448Z,22.64
2022-07-26T02:22:28.932Z,22.57
2022-07-26T02:24:55.597Z,22.35
2022-07-26T02:27:22.050Z,22.32
2022-07-26T02:29:48.503Z,22.19
2022-07-26T02:32:14.905Z,21.85
2022-07-26T02:34:41.371Z,21.80
2022-07-26T02:37:07.947Z,22.81
2022-07-26T02:39:34.418Z,22.36
2022-07-26T02:42:02.298Z,22.26
2022-07-26T02:44:30.461Z,22.38
2022-07-26T02:47:00.992Z,22.83
2022-07-26T02:49:27.400Z,22.40
2022-07-26T02:51:53.768Z,22.34
2022-07-26T02:54:20.571Z,22.24
2022-07-26T02:56:47.132Z,21.58
2022-07-26T02:59:13.611Z,21.84
2022-07-26T03:02:04.571Z,22.34
2022-07-26T03:04:32.660Z,22.49
2022-07-26T03:06:59.057Z,22.20
2022-07-26T03:09:25.482Z,22.42
2022-07-26T03:14:56.059Z,21.95
2022-07-26T03:17:28.624Z,21.98
2022-07-26T03:19:55.334Z,22.27
2022-07-26T03:22:26.784Z,22.23
2022-07-26T03:24:53.737Z,21.86
2022-07-26T03:27:20.231Z,22.00
2022-07-26T03:32:30.332Z,22.15
2022-07-26T03:35:00.129Z,21.99
2022-07-26T03:37:26.975Z,21.95
2022-07-26T03:40:12.800Z,21.52
2022-07-26T03:42:39.195Z,21.63
2022-07-26T03:45:06.169Z,22.08
2022-07-26T03:47:32.558Z,21.99
2022-07-26T03:49:58.968Z,21.83
2022-07-26T03:52:25.368Z,21.89
2022-07-26T03:54:51.774Z,22.22
2022-07-26T03:57:18.216Z,21.57
2022-07-26T03:59:44.977Z,21.49
2022-07-26T04:02:11.501Z,22.10
2022-07-26T04:04:38.007Z,21.60
2022-07-26T04:07:06.344Z,21.47
2022-07-26T04:09:35.931Z,22.16
2022-07-26T04:12:02.339Z,22.29
2022-07-26T04:14:28.760Z,21.81
2022-07-26T04:19:38.954Z,22.14
2022-07-26T04:22:06.334Z,22.19
2022-07-26T04:24:32.877Z,21.42
2022-07-26T04:27:00.829Z,21.57
2022-07-26T04:29:28.037Z,22.09
2022-07-26T04:34:35.102Z,21.59
2022-07-26T04:37:09.074Z,21.88
2022-07-26T04:39:36.423Z,21.44
2022-07-26T04:42:02.918Z,21.20
2022-07-26T04:44:29.341Z,21.27
2022-07-26T04:46:55.723Z,21.45
2022-07-26T04:49:22.950Z,21.61
2022-07-26T04:51:49.426Z,21.63
2022-07-26T04:54:20.572Z,21.31
2022-07-26T04:56:47.665Z,21.76
2022-07-26T04:59:18.456Z,21.71
2022-07-26T05:01:47.841Z,21.36
2022-07-26T05:04:14.400Z,21.97
2022-07-26T05:06:40.803Z,21.35
2022-07-26T05:09:07.353Z,21.62
2022-07-26T05:11:33.773Z,21.47
2022-07-26T05:14:00.156Z,21.47
2022-07-26T05:16:26.717Z,22.17
2022-07-26T05:18:55.722Z,21.62
2022-07-26T05:21:22.180Z,21.31
2022-07-26T05:23:48.731Z,21.50
2022-07-26T05:26:15.303Z,21.91
2022-07-26T05:28:41.774Z,21.70
2022-07-26T05:31:08.368Z,21.81
2022-07-26T05:33:34.771Z,22.01
2022-07-26T05:36:01.331Z,21.78
2022-07-26T05:38:27.797Z,21.54
2022-07-26T05:40:54.213Z,21.79
2022-07-26T05:43:20.611Z,21.51
2022-07-26T05:45:47.206Z,21.77
2022-07-26T05:48:13.896Z,21.83
2022-07-26T05:50:40.496Z,22.02
2022-07-26T05:53:06.931Z,21.63
2022-07-26T05:55:33.927Z,21.56
2022-07-26T05:58:00.371Z,21.64
2022-07-26T06:00:26.813Z,21.56
2022-07-26T06:02:53.307Z,21.67
2022-07-26T06:05:20.008Z,21.79
2022-07-26T06:07:46.489Z,21.76
2022-07-26T06:10:13.179Z,21.69
2022-07-26T06:12:39.726Z,21.95
2022-07-26T06:15:15.314Z,21.80
2022-07-26T06:17:42.677Z,21.73
2022-07-26T06:20:09.748Z,21.74
2022-07-26T06:22:36.153Z,22.35
2022-07-26T06:25:02.567Z,22.22
2022-07-26T06:27:31.721Z,21.93
2022-07-26T06:29:58.228Z,21.65
2022-07-26T06:32:24.641Z,22.04
2022-07-26T06:34:51.060Z,21.86
2022-07-26T06:37:17.508Z,21.75
2022-07-26T06:39:43.921Z,21.79
2022-07-26T06:42:10.323Z,21.76
2022-07-26T06:44:36.779Z,21.78
2022-07-26T06:47:03.372Z,21.69
2022-07-26T06:49:29.871Z,22.04
2022-07-26T06:51:57.904Z,21.89
2022-07-26T06:54:24.440Z,21.98
2022-07-26T06:56:50.892Z,21.98
2022-07-26T06:59:17.341Z,21.93
2022-07-26T07:01:58.721Z,22.30
2022-07-26T07:04:27.224Z,21.85
2022-07-26T07:06:53.688Z,22.20
2022-07-26T07:09:21.609Z,22.18
2022-07-26T07:11:51.765Z,22.44
2022-07-26T07:14:22.745Z,22.72
2022-07-26T07:16:49.186Z,22.26
2022-07-26T07:19:15.682Z,22.33
2022-07-26T07:21:42.092Z,21.93
2022-07-26T07:24:09.634Z,22.30
2022-07-26T07:26:36.823Z,22.42
2022-07-26T07:29:04.274Z,22.51
2022-07-26T07:31:48.723Z,22.44
2022-07-26T07:34:18.106Z,22.70
2022-07-26T07:36:46.454Z,23.14
2022-07-26T07:39:17.644Z,23.27
2022-07-26T07:41:45.026Z,23.14
2022-07-26T07:44:11.810Z,23.52
2022-07-26T07:46:38.813Z,23.53
2022-07-26T07:49:05.854Z,23.55
2022-07-26T07:51:33.322Z,23.21
2022-07-26T07:54:06.058Z,23.53
2022-07-26T07:56:33.474Z,23.32
2022-07-26T07:59:00.104Z,23.17
2022-07-26T08:01:39.578Z,23.11
2022-07-26T08:04:07.944Z,23.39
2022-07-26T08:06:34.453Z,23.12
2022-07-26T08:09:01.069Z,23.81
2022-07-26T08:11:30.477Z,23.55
2022-07-26T08:13:57.203Z,23.34
2022-07-26T08:16:24.465Z,23.26
2022-07-26T08:18:57.047Z,23.31
2022-07-26T08:21:24.673Z,23.22
2022-07-26T08:23:54.039Z,23.16
2022-07-26T08:26:20.644Z,23.32
2022-07-26T08:28:48.175Z,23.62
2022-07-26T08:31:16.882Z,23.91
2022-07-26T08:33:52.826Z,24.14
2022-07-26T08:36:19.289Z,23.93
2022-07-26T08:38:46.320Z,24.22
2022-07-26T08:41:14.973Z,24.39
2022-07-26T08:43:43.763Z,24.39
2022-07-26T08:46:24.340Z,24.55
2022-07-26T08:48:52.355Z,24.25
2022-07-26T08:51:22.382Z,24.31
2022-07-26T08:53:50.233Z,24.77
2022-07-26T08:56:16.619Z,24.94
2022-07-26T08:58:43.788Z,25.18
2022-07-26T09:01:23.056Z,25.26
2022-07-26T09:03:52.075Z,24.60
2022-07-26T09:06:21.926Z,24.44
2022-07-26T09:08:52.894Z,24.98
2022-07-26T09:11:31.121Z,24.90
2022-07-26T09:14:06.725Z,24.77
2022-07-26T09:16:39.497Z,24.42
2022-07-26T09:19:21.344Z,24.27
2022-07-26T09:21:49.116Z,24.57
2022-07-26T09:24:35.004Z,24.67
2022-07-26T09:27:05.200Z,24.68
2022-07-26T09:29:43.158Z,25.04
2022-07-26T09:32:12.588Z,24.94
2022-07-26T09:34:51.953Z,24.75
2022-07-26T09:37:34.487Z,24.00
2022-07-26T09:40:17.439Z,24.32
2022-07-26T09:43:02.237Z,24.24
2022-07-26T09:45:30.822Z,24.57
2022-07-26T09:47:57.818Z,24.31
2022-07-26T09:50:27.862Z,24.25
2022-07-26T09:53:02.129Z,24.24
2022-07-26T09:55:39.309Z,24.23
2022-07-26T09:58:13.899Z,23.86
2022-07-26T10:00:40.682Z,24.52
2022-07-26T10:03:10.131Z,24.28
2022-07-26T10:05:37.875Z,24.03
2022-07-26T10:08:05.385Z,24.69
2022-07-26T10:10:38.985Z,24.74
2022-07-26T10:13:08.019Z,25.09
2022-07-26T10:15:38.455Z,25.08
2022-07-26T10:18:08.436Z,25.19
2022-07-26T10:20:49.912Z,24.71
2022-07-26T10:23:40.134Z,25.21
2022-07-26T10:26:21.370Z,24.84
2022-07-26T10:28:47.955Z,24.74
2022-07-26T10:31:51.293Z,24.64
2022-07-26T10:34:56.472Z,24.66
2022-07-26T10:37:27.795Z,24.88
2022-07-26T10:40:22.320Z,24.84
2022-07-26T10:42:48.810Z,24.31
2022-07-26T10:45:21.219Z,24.19
2022-07-26T10:48:17.154Z,24.87
2022-07-26T10:50:46.719Z,24.25
2022-07-26T10:53:19.200Z,24.39
2022-07-26T10:55:53.635Z,24.52
2022-07-26T10:58:21.920Z,24.35
2022-07-26T11:01:03.295Z,25.02
2022-07-26T11:03:41.559Z,25.51
2022-07-26T11:06:12.245Z,25.93
2022-07-26T11:08:38.792Z,25.88
2022-07-26T11:11:05.457Z,26.14
2022-07-26T11:13:33.473Z,26.13
2022-07-26T11:16:02.609Z,25.86
2022-07-26T11:18:32.566Z,25.88
2022-07-26T11:21:15.648Z,24.87
2022-07-26T11:23:46.551Z,24.69
2022-07-26T11:26:23.269Z,24.50
2022-07-26T11:28:55.520Z,24.43
2022-07-26T11:31:55.871Z,24.26
2022-07-26T11:34:29.371Z,24.44
2022-07-26T11:36:58.905Z,24.99
2022-07-26T11:39:27.938Z,24.72
2022-07-26T11:42:01.651Z,23.98
2022-07-26T11:44:29.089Z,24.42
2022-07-26T11:46:57.643Z,24.25
2022-07-26T11:49:59.700Z,24.40
2022-07-26T11:52:25.058Z,24.30
2022-07-26T11:54:53.184Z,24.92
2022-07-26T11:57:20.113Z,24.52
2022-07-26T11:59:48.463Z,24.92
2022-07-26T12:02:15.506Z,25.06
2022-07-26T12:04:43.492Z,25.56
2022-07-26T12:07:12.346Z,26.25
2022-07-26T12:10:01.489Z,26.23
2022-07-26T12:12:31.054Z,26.18
2022-07-26T12:15:02.673Z,26.54
2022-07-26T12:17:35.129Z,27.29
2022-07-26T12:20:17.566Z,27.05
2022-07-26T12:23:04.952Z,26.83
2022-07-26T12:25:31.621Z,26.85
2022-07-26T12:27:58.090Z,26.65
2022-07-26T12:30:25.636Z,26.48
2022-07-26T12:33:02.117Z,26.77
2022-07-26T12:35:33.343Z,27.22
2022-07-26T12:37:59.955Z,27.17
2022-07-26T12:40:29.305Z,26.76
2022-07-26T12:43:01.253Z,26.16
2022-07-26T12:45:32.565Z,25.79
2022-07-26T12:48:00.870Z,25.76
2022-07-26T12:50:29.071Z,25.53
2022-07-26T12:53:07.091Z,25.50
2022-07-26T12:55:34.433Z,25.17
2022-07-26T12:58:01.271Z,25.80
2022-07-26T13:00:29.616Z,26.17
2022-07-26T13:02:57.191Z,26.12
2022-07-26T13:05:24.022Z,26.42
2022-07-26T13:07:52.785Z,26.55
2022-07-26T13:10:48.305Z,27.07
2022-07-26T13:13:16.464Z,26.94
2022-07-26T13:15:44.442Z,25.89
2022-07-26T13:18:12.948Z,26.11
2022-07-26T13:20:39.446Z,26.34
2022-07-26T13:23:12.720Z,26.39
2022-07-26T13:25:40.891Z,26.56
2022-07-26T13:28:10.040Z,26.46
2022-07-26T13:30:47.216Z,25.75
2022-07-26T13:33:16.347Z,26.27
2022-07-26T13:35:42.920Z,26.61
2022-07-26T13:38:10.089Z,26.71
2022-07-26T13:40:36.583Z,26.56
2022-07-26T13:43:07.409Z,26.73
2022-07-26T13:45:38.366Z,27.05
2022-07-26T13:48:05.656Z,27.24
2022-07-26T13:50:32.179Z,27.33
2022-07-26T13:52:59.178Z,27.29
2022-07-26T13:55:28.804Z,27.37
2022-07-26T13:57:56.636Z,27.24
2022-07-26T14:00:25.517Z,26.92
2022-07-26T14:02:52.094Z,26.67
2022-07-26T14:05:20.588Z,26.34
2022-07-26T14:07:50.596Z,26.02
2022-07-26T14:13:01.067Z,26.20
2022-07-26T14:15:27.439Z,26.67
2022-07-26T14:18:00.553Z,26.90
2022-07-26T14:20:27.353Z,27.19
2022-07-26T14:22:56.897Z,27.50
2022-07-26T14:25:25.563Z,27.31
2022-07-26T14:27:53.609Z,26.52
2022-07-26T14:30:27.380Z,27.01
2022-07-26T14:32:57.378Z,26.43
2022-07-26T14:35:25.673Z,26.86
2022-07-26T14:37:59.419Z,26.89
2022-07-26T14:40:26.148Z,26.50
2022-07-26T14:42:55.527Z,26.55
2022-07-26T14:45:38.378Z,26.10
2022-07-26T14:48:51.937Z,26.56
2022-07-26T14:51:21.149Z,26.66
2022-07-26T14:53:51.207Z,26.86
2022-07-26T14:56:40.619Z,26.63
2022-07-26T14:59:50.708Z,27.01
2022-07-26T15:02:29.331Z,27.03
2022-07-26T15:05:03.675Z,26.34
2022-07-26T15:07:47.930Z,26.95
2022-07-26T15:10:20.746Z,26.80
2022-07-26T15:12:52.174Z,26.21
2022-07-26T15:15:18.766Z,26.48
2022-07-26T15:17:53.488Z,26.51
2022-07-26T15:29:18.832Z,26.67
2022-07-26T15:35:01.735Z,26.70
2022-07-26T15:37:28.799Z,26.54
2022-07-26T15:40:13.995Z,26.26
2022-07-26T15:42:47.402Z,26.89
2022-07-26T15:45:15.372Z,26.69
2022-07-26T15:47:54.875Z,26.13
2022-07-26T15:50:29.975Z,26.02
2022-07-26T15:52:56.677Z,25.92
2022-07-26T15:55:23.618Z,25.75
2022-07-26T15:57:50.116Z,25.78
2022-07-26T16:00:17.037Z,25.53
2022-07-26T16:02:54.024Z,26.09
2022-07-26T16:05:20.905Z,25.23
2022-07-26T16:07:47.856Z,26.16
2022-07-26T16:10:14.832Z,25.62
2022-07-26T16:12:42.212Z,25.66
2022-07-26T16:15:10.383Z,25.26
2022-07-26T16:17:37.354Z,25.76
2022-07-26T16:20:04.763Z,25.95
2022-07-26T16:22:42.644Z,25.95
2022-07-26T16:25:10.115Z,25.88
2022-07-26T16:27:41.821Z,25.83
2022-07-26T16:30:43.706Z,25.79
2022-07-26T16:33:20.065Z,25.73
2022-07-26T16:35:48.492Z,25.65
2022-07-26T16:38:24.929Z,25.63
2022-07-26T16:40:53.175Z,25.76
2022-07-26T16:43:20.853Z,26.02
2022-07-26T16:45:47.278Z,25.64
2022-07-26T16:48:13.796Z,25.30
2022-07-26T16:50:40.679Z,25.22
2022-07-26T16:53:10.391Z,24.99
2022-07-26T16:55:39.543Z,24.49
2022-07-26T16:58:05.980Z,24.91
2022-07-26T17:00:32.442Z,24.82
2022-07-26T17:02:59.051Z,24.89
2022-07-26T17:05:25.489Z,25.12
2022-07-26T17:07:52.127Z,24.68
2022-07-26T17:10:18.778Z,24.80
2022-07-26T17:12:45.646Z,24.68
2022-07-26T17:15:13.809Z,24.74
2022-07-26T17:17:41.562Z,24.33
2022-07-26T17:20:10.568Z,23.96
2022-07-26T17:22:37.182Z,24.67
2022-07-26T17:25:05.340Z,24.43
2022-07-26T17:27:31.740Z,24.67
2022-07-26T17:29:59.887Z,24.50
2022-07-26T17:32:29.573Z,24.26
2022-07-26T17:34:56.279Z,24.31
2022-07-26T17:37:22.775Z,24.38
2022-07-26T17:39:52.551Z,24.51
2022-07-26T17:42:20.205Z,24.29
2022-07-26T17:44:46.687Z,24.36
2022-07-26T17:47:28.486Z,24.29
2022-07-26T17:50:08.961Z,24.34
2022-07-26T17:52:45.080Z,24.04
2022-07-26T17:55:11.531Z,23.82
2022-07-26T17:57:38.093Z,24.03
2022-07-26T18:00:06.687Z,23.69
2022-07-26T18:02:33.484Z,23.34
2022-07-26T18:04:59.986Z,23.60
2022-07-26T18:07:26.483Z,23.39
2022-07-26T18:09:52.899Z,23.67
2022-07-26T18:12:19.348Z,23.42
2022-07-26T18:14:45.782Z,23.49
2022-07-26T18:17:12.340Z,23.38
2022-07-26T18:19:38.796Z,23.84
2022-07-26T18:22:06.238Z,23.75
2022-07-26T18:24:33.089Z,23.44
2022-07-26T18:26:59.523Z,23.52
2022-07-26T18:29:25.993Z,23.51
2022-07-26T18:31:52.536Z,23.18
2022-07-26T18:34:19.031Z,23.11
2022-07-26T18:36:45.481Z,23.46
2022-07-26T18:39:12.496Z,23.91
2022-07-26T18:41:39.153Z,23.35
2022-07-26T18:44:05.886Z,23.55
2022-07-26T18:46:32.367Z,23.46
2022-07-26T18:49:00.246Z,23.87
2022-07-26T18:51:28.776Z,23.78
2022-07-26T18:53:55.257Z,24.00
2022-07-26T18:56:21.717Z,23.57
2022-07-26T18:58:48.144Z,23.46
2022-07-26T19:01:14.806Z,23.88
2022-07-26T19:03:41.273Z,23.27
2022-07-26T19:06:08.645Z,23.24
2022-07-26T19:08:35.043Z,23.21
2022-07-26T19:11:01.480Z,23.56
2022-07-26T19:13:27.913Z,23.74
2022-07-26T19:15:54.531Z,23.23
2022-07-26T19:18:20.957Z,23.34
2022-07-26T19:20:47.384Z,23.07
2022-07-26T19:23:13.938Z,22.86
2022-07-26T19:25:41.427Z,23.12
2022-07-26T19:28:08.561Z,23.05
2022-07-26T19:30:36.698Z,23.23
2022-07-26T19:33:03.205Z,23.15
2022-07-26T19:35:30.429Z,23.31
2022-07-26T19:37:57.390Z,23.27
2022-07-26T19:40:24.007Z,23.05
2022-07-26T19:42:50.430Z,23.52
2022-07-26T19:45:16.937Z,23.02
2022-07-26T19:47:44.377Z,22.96
2022-07-26T19:50:11.830Z,23.23
2022-07-26T19:52:39.057Z,23.69
2022-07-26T19:55:06.119Z,23.10
2022-07-26T19:57:32.582Z,22.89
2022-07-26T20:00:00.491Z,23.19
2022-07-26T20:02:26.935Z,22.86
2022-07-26T20:04:54.473Z,22.96
2022-07-26T20:07:21.139Z,23.31
2022-07-26T20:09:49.121Z,23.06
2022-07-26T20:12:16.181Z,23.52
2022-07-26T20:14:42.978Z,22.88
2022-07-26T20:17:12.019Z,23.40
2022-07-26T20:19:39.782Z,22.62
2022-07-26T20:22:06.610Z,22.52
2022-07-26T20:24:33.102Z,22.44
2022-07-26T20:26:59.656Z,22.79
2022-07-26T20:29:26.131Z,22.38
2022-07-26T20:31:52.550Z,22.44
2022-07-26T20:34:18.999Z,22.21
2022-07-26T20:36:46.035Z,22.84
2022-07-26T20:39:13.055Z,22.23
2022-07-26T20:41:39.925Z,22.21
2022-07-26T20:44:06.545Z,22.28
2022-07-26T20:46:33.547Z,22.64
2022-07-26T20:49:00.205Z,22.24
2022-07-26T20:51:26.659Z,22.37
2022-07-26T20:53:53.138Z,22.47
2022-07-26T20:56:19.550Z,22.29
2022-07-26T20:58:45.983Z,22.40
2022-07-26T21:01:13.823Z,22.43
2022-07-26T21:03:40.457Z,22.55
2022-07-26T21:06:06.987Z,22.79
2022-07-26T21:08:33.374Z,22.35
2022-07-26T21:10:59.797Z,22.50
2022-07-26T21:13:26.236Z,22.29
2022-07-26T21:15:54.244Z,22.30
2022-07-26T21:18:21.313Z,22.30
2022-07-26T21:20:47.966Z,22.31
2022-07-26T21:23:17.897Z,22.19
2022-07-26T21:25:44.911Z,22.33
2022-07-26T21:28:11.442Z,22.20
2022-07-26T21:30:38.324Z,22.28
2022-07-26T21:33:05.497Z,21.94
2022-07-26T21:35:32.304Z,22.00
2022-07-26T21:37:58.843Z,22.26
2022-07-26T21:40:25.461Z,22.00
2022-07-26T21:42:51.961Z,22.46
2022-07-26T21:45:18.553Z,21.74
2022-07-26T21:47:45.002Z,21.98
2022-07-26T21:50:12.129Z,22.01
2022-07-26T21:52:38.544Z,21.77
2022-07-26T21:55:05.601Z,21.87
2022-07-26T21:57:31.998Z,21.92
2022-07-26T21:59:59.161Z,21.91
2022-07-26T22:02:26.054Z,21.68
2022-07-26T22:04:52.519Z,22.31
2022-07-26T22:07:18.925Z,21.63
2022-07-26T22:09:45.368Z,21.63
2022-07-26T22:12:11.799Z,21.49
2022-07-26T22:14:38.261Z,21.49
2022-07-26T22:17:04.731Z,21.98
2022-07-26T22:19:31.230Z,21.46
2022-07-26T22:21:57.711Z,21.64
2022-07-26T22:24:24.150Z,21.33
2022-07-26T22:26:50.562Z,21.51
2022-07-26T22:29:17.001Z,21.47
2022-07-26T22:31:43.526Z,21.42
2022-07-26T22:34:10.137Z,21.47
2022-07-26T22:36:36.563Z,21.59
2022-07-26T22:39:03.202Z,22.23
2022-07-26T22:41:31.705Z,21.55
2022-07-26T22:43:59.112Z,21.46
2022-07-26T22:46:27.630Z,21.42
2022-07-26T22:48:55.707Z,21.46
2022-07-26T22:51:22.167Z,21.26
2022-07-26T22:53:48.588Z,21.34
2022-07-26T22:56:19.680Z,21.74
2022-07-26T22:58:46.834Z,21.40
2022-07-26T23:01:13.702Z,21.41
2022-07-26T23:03:41.429Z,21.41
2022-07-26T23:06:21.009Z,21.21
2022-07-26T23:08:57.296Z,21.04
2022-07-26T23:11:23.733Z,21.36
2022-07-26T23:13:50.142Z,20.86
2022-07-26T23:16:16.644Z,21.14
2022-07-26T23:18:43.074Z,21.22
2022-07-26T23:21:09.526Z,21.26
2022-07-26T23:23:35.973Z,21.42
2022-07-26T23:26:02.470Z,20.90
2022-07-26T23:28:36.210Z,21.55
2022-07-26T23:31:09.038Z,21.00
2022-07-26T23:33:52.594Z,21.43
2022-07-26T23:36:30.237Z,20.80
2022-07-26T23:38:58.706Z,20.85
2022-07-26T23:41:26.547Z,20.94
2022-07-26T23:43:54.023Z,20.98
2022-07-26T23:46:20.950Z,20.80
2022-07-26T23:48:47.543Z,20.93
2022-07-26T23:51:14.768Z,20.72
2022-07-26T23:53:41.334Z,20.50
2022-07-26T23:56:08.020Z,20.84
2022-07-26T23:58:34.444Z,21.29
